Time;durP1;ratioP1;P1;durP2;ratioP2;P2;SDS_P1;SDS_P2;PMS_P1;PMS_P2;Temp;Humidity;BMP_temperature;BMP_pressure;BME280_temperature;BME280_humidity;BME280_pressure;Samples;Min_cycle;Max_cycle;Signal;HPM_P1;HPM_P2
2022/02/11 00:04:22;;;;;;;13.20;2.03;;;3.50;99.90;;;;;;6068942;23;20312;-80
2022/02/11 00:07:02;;;;;;;11.18;2.47;;;3.50;99.90;;;;;;6063937;23;20084;-81
2022/02/11 00:09:39;;;;;;;19.45;2.50;;;3.50;99.90;;;;;;6064436;23;20026;-82
2022/02/11 00:12:06;;;;;;;17.13;1.98;;;3.40;99.90;;;;;;6066076;23;20025;-81
2022/02/11 00:14:40;;;;;;;11.88;2.00;;;3.40;99.90;;;;;;6066508;23;20451;-81
2022/02/11 00:17:06;;;;;;;14.90;2.40;;;3.50;99.90;;;;;;6066580;23;20049;-81
2022/02/11 00:19:32;;;;;;;13.15;2.03;;;3.50;99.90;;;;;;6065609;23;20015;-81
2022/02/11 00:21:57;;;;;;;17.08;2.20;;;3.40;99.90;;;;;;6090997;23;20011;-81
2022/02/11 00:24:23;;;;;;;19.60;2.30;;;3.40;99.90;;;;;;6091916;23;20336;-81
2022/02/11 00:27:08;;;;;;;18.38;2.20;;;3.50;99.90;;;;;;6067034;23;20486;-81
2022/02/11 00:32:26;;;;;;;21.05;3.05;;;3.60;99.90;;;;;;6068150;23;20404;-80
2022/02/11 00:34:54;;;;;;;17.87;2.87;;;3.60;99.90;;;;;;6067513;23;20014;-80
2022/02/11 00:37:23;;;;;;;13.88;2.25;;;3.60;99.90;;;;;;6064936;23;20015;-80
2022/02/11 00:40:21;;;;;;;17.23;2.67;;;3.60;99.90;;;;;;6065807;23;20011;-81
2022/02/11 01:04:56;;;;;;;15.10;2.28;;;3.70;99.90;;;;;;6008003;23;20075;-81
2022/02/11 01:07:22;;;;;;;20.73;3.08;;;3.70;99.90;;;;;;5977748;23;20023;-80
2022/02/11 01:09:47;;;;;;;22.95;2.90;;;4.00;99.90;;;;;;5977987;23;20456;-82
2022/02/11 01:12:14;;;;;;;13.32;2.45;;;3.60;99.90;;;;;;5977771;23;20083;-81
2022/02/11 01:14:48;;;;;;;21.92;2.65;;;3.60;99.90;;;;;;5988925;23;20093;-82
2022/02/11 01:17:38;;;;;;;12.50;2.88;;;3.60;99.90;;;;;;6035566;23;20029;-81
2022/02/11 01:20:14;;;;;;;11.27;2.20;;;3.60;99.90;;;;;;6039706;23;20110;-81
2022/02/11 01:22:58;;;;;;;16.02;2.65;;;3.70;99.90;;;;;;6036704;23;20098;-81
2022/02/11 01:28:07;;;;;;;17.58;2.90;;;3.80;99.90;;;;;;6035749;23;20028;-80
2022/02/11 01:36:24;;;;;;;;;;;4.30;99.90;;;;;;6120410;23;20022;-81
2022/02/11 01:54:55;;;;;;;22.65;3.47;;;3.90;99.90;;;;;;6038776;23;20033;-82
2022/02/11 02:05:39;;;;;;;14.13;2.13;;;4.10;99.90;;;;;;6039254;23;20019;-82
2022/02/11 02:13:54;;;;;;;18.85;2.67;;;4.20;99.90;;;;;;6039785;23;19997;-81
2022/02/11 02:32:34;;;;;;;25.30;2.92;;;4.40;99.90;;;;;;6121556;23;20019;-82
2022/02/11 02:56:39;;;;;;;29.35;3.58;;;4.80;99.90;;;;;;6121652;23;20018;-82
2022/02/11 03:14:36;;;;;;;25.98;3.42;;;4.90;99.90;;;;;;6090609;23;20049;-82
2022/02/11 03:35:04;;;;;;;16.55;2.08;;;5.70;99.90;;;;;;6123077;23;20331;-81
2022/02/11 04:21:33;;;;;;;20.33;2.45;;;4.90;99.90;;;;;;6123196;23;20014;-81
2022/02/11 04:56:22;;;;;;;9.10;1.85;;;4.70;99.90;;;;;;6039570;23;20258;-80
2022/02/11 05:01:32;;;;;;;22.25;2.70;;;4.80;99.90;;;;;;6039755;23;20029;-80
2022/02/11 05:03:57;;;;;;;26.88;3.47;;;4.70;99.90;;;;;;6039673;23;20023;-80
2022/02/11 05:06:23;;;;;;;18.15;2.80;;;4.80;99.90;;;;;;6039910;23;20456;-79
2022/02/11 05:08:49;;;;;;;25.02;2.80;;;4.80;99.90;;;;;;6096441;23;20017;-79
2022/02/11 05:11:15;;;;;;;15.25;2.63;;;4.80;99.90;;;;;;6123007;23;20028;-80
2022/02/11 05:13:41;;;;;;;11.90;2.05;;;4.80;99.90;;;;;;6122080;23;20084;-79
2022/02/11 05:16:07;;;;;;;16.42;1.67;;;4.90;99.90;;;;;;6098501;23;20022;-79
2022/02/11 05:18:33;;;;;;;15.30;2.20;;;4.90;99.90;;;;;;6122807;23;20014;-79
2022/02/11 05:20:58;;;;;;;18.80;2.15;;;4.90;99.90;;;;;;6098284;23;20330;-80
2022/02/11 05:23:24;;;;;;;14.32;1.80;;;5.40;99.90;;;;;;6123470;23;20048;-79
2022/02/11 05:25:50;;;;;;;18.55;2.85;;;5.00;99.90;;;;;;6098648;23;20107;-80
2022/02/11 05:28:16;;;;;;;23.23;2.42;;;5.00;99.90;;;;;;6097885;23;20021;-79
2022/02/11 05:30:42;;;;;;;20.48;2.60;;;5.10;99.90;;;;;;6098686;23;20415;-79
2022/02/11 05:33:09;;;;;;;16.45;2.05;;;5.00;99.90;;;;;;6122002;23;20109;-80
2022/02/11 05:35:38;;;;;;;14.32;2.42;;;5.40;99.90;;;;;;6122437;23;20014;-80
2022/02/11 05:38:03;;;;;;;19.17;2.35;;;5.00;99.90;;;;;;6097197;23;20017;-80
2022/02/11 05:40:29;;;;;;;20.15;2.55;;;5.00;99.90;;;;;;6122909;23;20057;-80
2022/02/11 05:42:56;;;;;;;21.23;2.55;;;5.00;99.90;;;;;;6122467;23;20018;-80
2022/02/11 05:45:22;;;;;;;18.73;1.90;;;4.90;99.90;;;;;;6097884;23;20014;-79
2022/02/11 05:47:48;;;;;;;17.05;2.20;;;4.90;99.90;;;;;;6122358;23;20476;-80
2022/02/11 05:50:14;;;;;;;25.35;2.92;;;5.20;99.90;;;;;;6122002;23;20029;-80
2022/02/11 05:52:39;;;;;;;19.58;2.17;;;5.00;99.90;;;;;;6121340;23;20018;-80
2022/02/11 05:55:06;;;;;;;15.02;2.03;;;5.00;99.90;;;;;;6098323;23;20029;-80
2022/02/11 05:57:32;;;;;;;15.80;2.20;;;5.00;99.90;;;;;;6147301;23;20012;-80
2022/02/11 05:59:59;;;;;;;17.67;3.20;;;5.00;99.90;;;;;;6122925;23;20372;-80
2022/02/11 06:02:25;;;;;;;15.75;2.40;;;5.00;99.90;;;;;;6098384;23;20141;-80
2022/02/11 06:04:50;;;;;;;16.30;2.15;;;5.00;99.90;;;;;;6122714;23;20121;-81
2022/02/11 06:07:16;;;;;;;11.05;2.08;;;5.20;99.90;;;;;;6122049;23;20025;-80
2022/02/11 06:09:42;;;;;;;18.42;2.35;;;5.00;99.90;;;;;;6121987;23;20465;-80
2022/02/11 06:12:08;;;;;;;12.55;2.17;;;5.00;99.90;;;;;;6098528;23;20021;-80
2022/02/11 06:14:36;;;;;;;11.38;1.83;;;5.00;99.90;;;;;;6093115;23;20023;-79
2022/02/11 06:17:06;;;;;;;10.48;1.90;;;5.00;99.90;;;;;;6068430;23;20411;-81
2022/02/11 06:19:32;;;;;;;19.25;2.13;;;5.30;99.90;;;;;;6067765;23;20014;-80
2022/02/11 06:29:15;;;;;;;15.60;2.22;;;4.40;99.90;;;;;;6003323;23;20072;-81
2022/02/11 06:31:41;;;;;;;14.45;2.72;;;6.00;99.90;;;;;;6004526;23;20019;-78
2022/02/11 06:34:07;;;;;;;12.65;2.28;;;5.40;99.90;;;;;;6026275;23;20039;-80
2022/02/11 06:36:33;;;;;;;13.52;1.95;;;4.90;99.90;;;;;;5979214;23;20016;-80
2022/02/11 06:38:59;;;;;;;18.33;2.42;;;4.90;99.90;;;;;;6028443;23;20046;-81
2022/02/11 06:41:25;;;;;;;11.75;1.77;;;4.80;99.90;;;;;;5981724;23;20016;-80
2022/02/11 06:43:51;;;;;;;19.25;2.67;;;4.80;99.90;;;;;;6028701;23;20174;-81
2022/02/11 06:50:57;;;;;;;15.93;2.20;;;4.90;99.90;;;;;;5977405;24;20353;-80
2022/02/11 06:54:11;;;;;;;18.95;2.80;;;4.90;99.90;;;;;;5892621;24;20385;-81
2022/02/11 06:56:41;;;;;;;15.13;2.20;;;4.90;99.90;;;;;;5870828;24;20037;-81
2022/02/11 06:59:09;;;;;;;14.23;1.90;;;4.90;99.90;;;;;;5849292;24;20066;-83
2022/02/11 07:01:35;;;;;;;12.60;2.00;;;6.10;99.90;;;;;;5849487;24;20058;-82
2022/02/11 07:04:04;;;;;;;17.38;2.33;;;5.00;99.90;;;;;;5872951;24;20029;-82
2022/02/11 07:09:06;;;;;;;19.52;2.45;;;4.90;99.90;;;;;;6199452;22;20032;-81
2022/02/11 07:12:03;;;;;;;15.55;2.30;;;4.90;99.90;;;;;;6186084;23;20013;-82
2022/02/11 07:14:35;;;;;;;9.07;1.95;;;4.40;99.90;;;;;;6099945;23;20014;-83
2022/02/11 07:17:00;;;;;;;16.67;2.80;;;4.00;99.90;;;;;;6123794;23;20031;-80
2022/02/11 07:19:30;;;;;;;14.98;2.03;;;5.50;99.90;;;;;;6124321;23;20450;-81
2022/02/11 07:26:16;;;;;;;10.98;1.90;;;4.20;99.90;;;;;;6032032;23;20019;-82
2022/02/11 07:28:50;;;;;;;16.95;1.88;;;3.80;99.90;;;;;;5985986;23;20094;-80
2022/02/11 07:31:21;;;;;;;13.40;2.13;;;4.50;99.90;;;;;;6033672;23;20510;-83
2022/02/11 07:33:55;;;;;;;9.23;1.75;;;5.00;99.90;;;;;;6010613;23;20015;-81
2022/02/11 07:36:21;;;;;;;14.05;1.77;;;5.60;99.90;;;;;;5989391;23;20011;-79
2022/02/11 07:38:47;;;;;;;13.40;1.88;;;5.50;99.90;;;;;;6038579;23;20588;-80
2022/02/11 07:41:12;;;;;;;19.00;2.00;;;4.70;99.90;;;;;;6011187;23;20400;-81
2022/02/11 07:43:39;;;;;;;14.00;1.80;;;4.60;99.90;;;;;;6033435;23;20019;-77
2022/02/11 07:46:05;;;;;;;15.13;1.92;;;4.70;99.90;;;;;;6032909;23;20019;-78
2022/02/11 07:48:30;;;;;;;14.90;2.25;;;4.70;99.90;;;;;;6033216;23;20500;-79
2022/02/11 07:50:56;;;;;;;23.23;3.03;;;4.80;99.90;;;;;;6048743;23;20026;-77
2022/02/11 07:53:24;;;;;;;23.45;2.88;;;4.70;99.90;;;;;;6089715;23;20027;-81
2022/02/11 07:56:25;;;;;;;12.82;2.05;;;4.60;99.90;;;;;;6091414;23;20328;-82
2022/02/11 07:58:51;;;;;;;10.98;1.48;;;4.50;99.90;;;;;;6064545;23;20014;-85
2022/02/11 08:01:32;;;;;;;11.38;1.67;;;4.90;99.90;;;;;;6021915;23;20090;-83
2022/02/11 08:03:58;;;;;;;23.70;3.00;;;4.80;99.90;;;;;;6118881;23;20013;-82
2022/02/11 08:10:46;;;;;;;11.02;1.90;;;4.80;99.90;;;;;;6095692;23;20108;-83
2022/02/11 08:13:42;;;;;;;12.55;1.73;;;4.70;99.90;;;;;;6007518;23;20394;-84
2022/02/11 08:16:35;;;;;;;18.02;2.40;;;5.80;99.90;;;;;;5983968;23;20024;-86
2022/02/11 08:19:25;;;;;;;11.77;2.55;;;5.00;99.90;;;;;;6006900;23;20015;-83
2022/02/11 08:22:03;;;;;;;20.10;2.33;;;5.00;99.90;;;;;;6006465;23;20471;-83
2022/02/11 08:24:36;;;;;;;18.38;2.47;;;4.90;99.90;;;;;;5983369;23;20016;-84
2022/02/11 08:27:03;;;;;;;15.55;2.70;;;4.90;99.90;;;;;;6006630;23;20661;-82
2022/02/11 08:29:31;;;;;;;25.35;2.88;;;4.90;99.90;;;;;;5982879;23;20094;-80
2022/02/11 08:32:01;;;;;;;27.50;2.78;;;4.80;99.90;;;;;;5982495;23;20356;-81
2022/02/11 08:34:27;;;;;;;24.05;3.22;;;4.80;99.90;;;;;;6019407;23;20017;-80
2022/02/11 08:37:39;;;;;;;25.58;3.15;;;4.80;99.90;;;;;;6095429;23;20018;-86
2022/02/11 08:40:28;;;;;;;19.48;3.08;;;4.70;99.90;;;;;;6006928;23;20011;-84
2022/02/11 08:43:30;;;;;;;17.80;2.85;;;4.80;99.90;;;;;;6011120;23;20456;-83
2022/02/11 08:46:42;;;;;;;14.77;2.53;;;5.70;99.90;;;;;;6011996;23;20086;-86
2022/02/11 08:53:27;;;;;;;21.70;3.58;;;4.50;99.90;;;;;;6035027;23;20075;-84
2022/02/11 08:55:54;;;;;;;27.25;3.88;;;4.60;99.90;;;;;;6032180;23;20019;-85
2022/02/11 08:58:49;;;;;;;16.52;2.90;;;6.00;99.90;;;;;;6009349;23;20046;-87
2022/02/11 09:02:11;;;;;;;14.00;2.53;;;4.30;99.90;;;;;;6011879;23;20460;-84
2022/02/11 09:05:42;;;;;;;22.73;3.20;;;5.00;99.90;;;;;;5977733;24;20019;-83
2022/02/11 09:08:34;;;;;;;24.75;3.42;;;5.10;99.90;;;;;;5921429;24;20021;-83
2022/02/11 09:11:05;;;;;;;12.97;2.00;;;5.20;99.90;;;;;;5871783;24;20036;-83
2022/02/11 09:13:47;;;;;;;13.10;1.92;;;6.30;99.90;;;;;;5096204;27;20823;-83
2022/02/11 09:16:12;;;;;;;21.40;2.35;;;4.70;99.90;;;;;;5079374;28;20081;-81
2022/02/11 09:18:41;;;;;;;19.33;2.53;;;4.60;99.90;;;;;;5126633;27;20048;-87
2022/02/11 09:21:16;;;;;;;25.77;2.45;;;5.50;99.90;;;;;;5083962;28;20363;-83
2022/02/11 09:28:01;;;;;;;25.63;3.53;;;5.30;99.90;;;;;;5056643;28;20323;-82
2022/02/11 09:30:55;;;;;;;24.75;3.33;;;4.60;99.90;;;;;;5024789;28;20045;-84
2022/02/11 09:33:39;;;;;;;24.50;3.30;;;5.60;99.90;;;;;;5055868;28;20171;-85
2022/02/11 09:36:05;;;;;;;35.40;4.32;;;5.80;99.90;;;;;;5040850;28;20122;-86
2022/02/11 09:38:34;;;;;;;23.63;3.67;;;6.50;99.90;;;;;;5039099;28;20076;-85
2022/02/11 09:41:00;;;;;;;30.48;3.28;;;5.60;99.90;;;;;;5057811;28;20098;-81
2022/02/11 09:43:27;;;;;;;24.73;3.72;;;6.40;99.90;;;;;;5036792;28;20049;-80
2022/02/11 09:45:53;;;;;;;22.23;3.17;;;6.40;99.90;;;;;;5013292;28;20048;-80
2022/02/11 09:48:19;;;;;;;23.05;2.63;;;5.70;99.90;;;;;;5013084;28;20053;-79
2022/02/11 09:50:45;;;;;;;19.60;2.88;;;5.70;99.90;;;;;;5029825;28;20240;-80
2022/02/11 09:53:13;;;;;;;23.92;3.28;;;5.70;99.90;;;;;;5032264;28;20086;-79
2022/02/11 09:55:43;;;;;;;20.90;3.35;;;5.60;99.90;;;;;;5046176;28;20149;-78
2022/02/11 09:58:14;;;;;;;22.17;4.07;;;5.70;99.90;;;;;;5013674;28;20053;-79
2022/02/11 10:00:44;;;;;;;22.90;3.42;;;5.70;99.90;;;;;;5052655;28;20080;-80
2022/02/11 10:03:18;;;;;;;18.80;3.10;;;5.50;99.90;;;;;;5070379;28;20079;-80
2022/02/11 10:05:46;;;;;;;37.50;4.07;;;5.40;99.90;;;;;;5121657;27;20461;-79
2022/02/11 10:13:05;;;;;;;23.40;3.03;;;5.40;99.90;;;;;;5098008;27;20116;-84
2022/02/11 10:15:40;;;;;;;22.98;2.75;;;4.80;99.90;;;;;;5034330;28;20041;-83
2022/02/11 10:18:09;;;;;;;17.20;2.42;;;5.40;99.90;;;;;;5020480;28;20037;-83
2022/02/11 10:20:42;;;;;;;22.10;2.33;;;4.90;99.90;;;;;;5021578;28;20056;-82
2022/02/11 10:23:34;;;;;;;20.10;2.53;;;4.90;99.90;;;;;;5032111;28;20040;-82
2022/02/11 10:26:14;;;;;;;19.55;3.17;;;5.50;99.90;;;;;;5020904;28;20072;-80
2022/02/11 10:28:51;;;;;;;21.52;3.10;;;5.40;99.90;;;;;;5030067;28;20503;-80
2022/02/11 10:31:22;;;;;;;18.85;3.25;;;5.40;99.90;;;;;;5049065;28;20416;-80
2022/02/11 10:34:18;;;;;;;18.33;2.42;;;5.40;99.90;;;;;;5047626;28;20052;-83
2022/02/11 10:36:48;;;;;;;21.02;2.42;;;5.40;99.90;;;;;;5027436;28;20442;-81
2022/02/11 10:39:30;;;;;;;19.95;2.67;;;5.40;99.90;;;;;;5048684;28;20040;-82
2022/02/11 10:41:58;;;;;;;13.18;2.30;;;5.40;99.90;;;;;;5044335;28;20075;-77
2022/02/11 10:44:34;;;;;;;15.80;2.75;;;5.40;99.90;;;;;;5060861;28;20041;-81
2022/02/11 10:47:07;;;;;;;22.17;2.28;;;5.40;99.90;;;;;;5018833;28;20032;-80
2022/02/11 10:49:55;;;;;;;25.45;3.67;;;5.50;99.90;;;;;;5038240;28;20060;-78
2022/02/11 10:53:16;;;;;;;21.88;2.63;;;5.60;99.90;;;;;;5069607;27;20043;-87
2022/02/11 10:55:56;;;;;;;18.38;2.90;;;5.60;99.90;;;;;;4978337;28;20164;-78
2022/02/11 10:58:24;;;;;;;15.55;2.25;;;5.70;99.90;;;;;;5038279;27;20104;-82
2022/02/11 11:00:50;;;;;;;18.73;2.60;;;5.70;99.90;;;;;;5097101;27;20035;-79
2022/02/11 11:03:18;;;;;;;12.00;2.30;;;5.80;99.90;;;;;;5100738;27;20031;-79
2022/02/11 11:05:45;;;;;;;9.30;1.70;;;5.90;99.90;;;;;;5103862;27;20391;-80
2022/02/11 11:08:15;;;;;;;14.15;1.92;;;5.90;99.90;;;;;;5100230;27;20110;-77
2022/02/11 11:10:43;;;;;;;9.45;1.80;;;5.90;99.90;;;;;;5100469;27;20172;-79
2022/02/11 11:13:16;;;;;;;19.15;2.47;;;5.80;99.90;;;;;;5079350;27;20040;-77
2022/02/11 11:15:44;;;;;;;11.85;2.30;;;5.80;99.90;;;;;;5098048;27;20153;-80
2022/02/11 11:18:11;;;;;;;15.23;2.80;;;5.70;99.90;;;;;;5103426;27;20059;-80
2022/02/11 11:20:41;;;;;;;11.05;1.67;;;5.70;99.90;;;;;;5084276;27;20450;-82
2022/02/11 11:23:26;;;;;;;15.73;1.98;;;6.60;99.90;;;;;;5101232;27;20046;-80
2022/02/11 11:26:06;;;;;;;16.05;1.83;;;6.10;99.90;;;;;;5094174;28;20443;-81
2022/02/11 11:28:42;;;;;;;22.55;2.97;;;6.30;99.90;;;;;;5095964;28;20063;-81
2022/02/11 11:31:26;;;;;;;11.23;2.13;;;7.20;99.90;;;;;;5105423;27;20122;-81
2022/02/11 11:34:12;;;;;;;14.40;2.45;;;6.50;99.90;;;;;;5065973;27;20115;-82
2022/02/11 11:36:46;;;;;;;19.48;2.05;;;6.50;99.90;;;;;;5095101;28;20147;-82
2022/02/11 11:39:12;;;;;;;22.90;2.88;;;6.40;99.90;;;;;;5080341;27;20066;-77
2022/02/11 11:41:38;;;;;;;33.33;3.33;;;6.40;99.90;;;;;;5076580;27;20062;-80
2022/02/11 11:44:22;;;;;;;15.68;2.13;;;6.40;99.90;;;;;;5079926;28;20062;-78
2022/02/11 11:46:52;;;;;;;15.20;2.47;;;6.40;99.90;;;;;;5094880;28;20391;-79
2022/02/11 11:49:21;;;;;;;19.70;1.90;;;6.30;99.90;;;;;;5100836;28;20047;-79
2022/02/11 11:51:47;;;;;;;13.05;2.05;;;6.60;99.90;;;;;;5089498;27;20039;-77
2022/02/11 11:54:15;;;;;;;13.43;1.77;;;6.20;99.90;;;;;;5080207;27;20051;-77
2022/02/11 11:56:43;;;;;;;10.63;1.75;;;6.30;99.90;;;;;;5083332;27;20043;-79
2022/02/11 11:59:14;;;;;;;16.75;2.00;;;6.30;99.90;;;;;;5099493;27;20487;-76
2022/02/11 12:02:01;;;;;;;18.65;2.00;;;6.30;99.90;;;;;;5103612;27;20090;-77
2022/02/11 12:04:30;;;;;;;17.13;2.65;;;6.30;99.90;;;;;;5097860;28;20075;-76
2022/02/11 12:07:18;;;;;;;19.63;2.17;;;6.40;99.90;;;;;;5096754;28;20073;-77
2022/02/11 12:09:49;;;;;;;6.25;1.50;;;6.40;99.90;;;;;;5080578;27;20035;-80
2022/02/11 12:12:20;;;;;;;16.17;2.63;;;6.40;99.90;;;;;;5088250;28;20051;-79
2022/02/11 12:14:50;;;;;;;15.57;2.25;;;6.40;99.90;;;;;;5130459;27;20129;-80
2022/02/11 12:17:20;;;;;;;9.20;1.52;;;6.50;99.90;;;;;;5069294;27;20136;-81
2022/02/11 12:19:56;;;;;;;15.18;2.50;;;6.70;99.90;;;;;;5071045;27;20531;-80
2022/02/11 12:22:32;;;;;;;16.63;2.38;;;6.60;99.90;;;;;;5077871;27;20042;-82
2022/02/11 12:28:01;;;;;;;26.63;2.72;;;6.80;99.90;;;;;;5085968;27;20040;-80
2022/02/11 12:30:27;;;;;;;18.10;2.50;;;6.60;99.90;;;;;;5087103;27;20969;-80
2022/02/11 12:32:57;;;;;;;6.93;1.23;;;6.70;99.90;;;;;;5101565;27;20066;-81
2022/02/11 12:35:27;;;;;;;9.63;1.90;;;6.60;99.90;;;;;;5085374;27;20043;-79
2022/02/11 12:37:53;;;;;;;17.25;2.30;;;6.50;99.90;;;;;;5085789;27;20035;-80
2022/02/11 12:40:27;;;;;;;12.85;2.10;;;6.50;99.90;;;;;;5116154;27;20043;-79
2022/02/11 12:43:09;;;;;;;20.77;3.05;;;6.50;99.90;;;;;;5075681;27;20031;-85
2022/02/11 12:45:49;;;;;;;16.63;1.73;;;6.50;99.90;;;;;;5084761;28;20035;-79
2022/02/11 12:50:00;;;;;;;8.43;1.40;;;6.40;99.90;;;;;;5089581;27;20078;-79
2022/02/11 12:52:33;;;;;;;16.42;2.10;;;6.50;99.90;;;;;;5095365;27;20049;-82
2022/02/11 12:55:03;;;;;;;12.02;1.70;;;6.40;99.90;;;;;;5094661;27;20097;-81
2022/02/11 12:57:51;;;;;;;11.02;1.45;;;6.40;99.90;;;;;;5106495;27;20047;-82
2022/02/11 13:00:24;;;;;;;19.35;1.88;;;7.30;99.90;;;;;;5099272;28;20393;-80
2022/02/11 13:03:22;;;;;;;16.35;2.42;;;6.70;99.90;;;;;;5086054;28;20196;-82
2022/02/11 13:06:39;;;;;;;16.70;2.85;;;6.90;99.90;;;;;;5076980;27;20158;-82
2022/02/11 13:09:24;;;;;;;12.00;2.08;;;7.20;99.90;;;;;;5110587;28;20035;-83
2022/02/11 13:12:00;;;;;;;8.07;1.38;;;7.30;99.90;;;;;;5098196;28;20047;-82
2022/02/11 13:14:27;;;;;;;10.60;2.00;;;7.20;99.90;;;;;;5099106;28;20047;-81
2022/02/11 13:17:24;;;;;;;14.15;2.00;;;7.60;99.90;;;;;;5101605;28;20043;-83
2022/02/11 13:19:50;;;;;;;12.10;2.00;;;7.50;99.90;;;;;;5102951;28;20051;-82
2022/02/11 13:22:17;;;;;;;11.55;1.98;;;8.40;99.90;;;;;;5122353;28;20171;-79
2022/02/11 13:24:43;;;;;;;11.93;2.10;;;7.50;99.90;;;;;;5121896;27;20197;-80
2022/02/11 13:27:11;;;;;;;10.57;1.73;;;7.20;99.90;;;;;;5105671;28;20295;-81
2022/02/11 13:29:37;;;;;;;6.18;0.98;;;7.10;99.90;;;;;;5097047;28;20038;-82
2022/02/11 13:32:03;;;;;;;7.57;1.23;;;7.30;99.90;;;;;;5129700;28;20035;-81
2022/02/11 13:34:32;;;;;;;11.95;2.00;;;6.80;99.90;;;;;;5118241;28;20039;-80
2022/02/11 13:37:05;;;;;;;16.58;2.25;;;6.80;99.90;;;;;;5101839;28;20047;-82
2022/02/11 13:43:28;;;;;;;19.25;2.13;;;6.60;99.90;;;;;;4981933;28;20049;-79
2022/02/11 13:45:56;;;;;;;10.35;1.75;;;6.50;99.90;;;;;;4983622;28;20148;-82
2022/02/11 13:48:27;;;;;;;15.13;1.90;;;7.20;99.90;;;;;;4953065;28;20486;-81
2022/02/11 13:51:12;;;;;;;14.32;1.80;;;6.40;99.90;;;;;;4981315;28;20057;-81
2022/02/11 13:53:52;;;;;;;15.35;1.90;;;6.40;99.90;;;;;;4967644;28;20452;-77
2022/02/11 13:56:41;;;;;;;16.35;2.40;;;6.40;99.90;;;;;;4964233;28;20495;-80
2022/02/11 13:59:24;;;;;;;22.70;2.22;;;6.70;99.90;;;;;;4969888;28;20051;-79
2022/02/11 14:01:50;;;;;;;16.33;2.10;;;6.90;99.90;;;;;;4981701;28;20177;-81
2022/02/11 14:04:27;;;;;;;13.68;2.00;;;6.70;99.90;;;;;;4954923;28;20462;-80
2022/02/11 14:06:57;;;;;;;12.80;1.75;;;6.60;99.90;;;;;;4957932;28;20464;-82
2022/02/11 14:09:36;;;;;;;14.20;2.10;;;6.40;99.90;;;;;;4956924;28;20038;-79
2022/02/11 14:12:03;;;;;;;19.48;1.92;;;6.20;99.90;;;;;;4957303;28;20073;-78
2022/02/11 14:14:31;;;;;;;15.25;2.22;;;6.30;99.90;;;;;;4970897;28;20042;-79
2022/02/11 14:17:00;;;;;;;15.95;2.00;;;6.40;99.90;;;;;;4986286;28;20426;-79
2022/02/11 14:19:27;;;;;;;16.02;1.95;;;6.40;99.90;;;;;;5051874;27;22028;-80
2022/02/11 14:21:58;;;;;;;14.40;1.60;;;6.40;99.90;;;;;;5110978;27;20162;-80
2022/02/11 14:24:25;;;;;;;13.98;1.50;;;6.40;99.90;;;;;;5087680;27;20479;-79
2022/02/11 14:26:52;;;;;;;9.57;1.85;;;6.50;99.90;;;;;;5103289;27;20448;-80
2022/02/11 14:29:18;;;;;;;10.40;1.55;;;6.50;99.90;;;;;;5081774;27;20046;-81
2022/02/11 14:31:45;;;;;;;11.18;1.33;;;6.60;99.90;;;;;;5101831;27;20114;-82
2022/02/11 14:34:13;;;;;;;15.20;1.98;;;7.00;99.90;;;;;;5086120;27;20039;-78
2022/02/11 14:36:39;;;;;;;12.55;1.60;;;6.60;99.90;;;;;;5081078;27;20027;-79
2022/02/11 14:39:13;;;;;;;14.10;2.42;;;6.50;99.90;;;;;;5101203;27;20036;-79
2022/02/11 14:41:48;;;;;;;15.10;2.35;;;6.40;99.90;;;;;;5084574;27;20044;-79
2022/02/11 14:44:15;;;;;;;12.93;1.90;;;6.40;99.90;;;;;;5085265;27;20168;-79
2022/02/11 14:46:40;;;;;;;19.65;2.50;;;6.30;99.90;;;;;;5122462;27;20386;-79
2022/02/11 14:49:06;;;;;;;13.23;1.92;;;6.20;99.90;;;;;;5103431;27;20058;-78
2022/02/11 14:51:35;;;;;;;23.80;2.10;;;6.30;99.90;;;;;;5095199;27;20130;-79
2022/02/11 14:54:08;;;;;;;17.05;2.13;;;6.20;99.90;;;;;;5094838;27;20050;-79
2022/02/11 14:56:35;;;;;;;16.30;2.70;;;6.10;99.90;;;;;;5108209;27;20043;-78
2022/02/11 14:59:01;;;;;;;9.35;1.58;;;6.10;99.90;;;;;;5082856;27;20050;-79
2022/02/11 15:01:27;;;;;;;13.23;2.38;;;6.00;99.90;;;;;;5112101;27;20047;-78
2022/02/11 15:03:52;;;;;;;13.25;2.30;;;6.00;99.90;;;;;;5080012;28;20036;-80
2022/02/11 15:06:18;;;;;;;12.80;2.30;;;5.80;99.90;;;;;;5096311;27;20550;-78
2022/02/11 15:08:45;;;;;;;16.45;2.00;;;5.90;99.90;;;;;;5101631;27;20468;-80
2022/02/11 15:11:12;;;;;;;20.83;3.03;;;5.90;99.90;;;;;;5080893;28;20075;-78
2022/02/11 15:13:38;;;;;;;14.00;2.17;;;6.10;99.90;;;;;;5084352;27;20040;-78
2022/02/11 15:16:07;;;;;;;14.25;2.50;;;6.20;99.90;;;;;;5114362;27;20519;-82
2022/02/11 15:18:34;;;;;;;13.98;1.63;;;6.30;99.90;;;;;;5105272;27;20052;-80
2022/02/11 15:21:20;;;;;;;18.52;2.10;;;6.70;99.90;;;;;;5098150;27;20036;-79
2022/02/11 15:23:46;;;;;;;13.85;1.83;;;6.60;99.90;;;;;;5102136;27;20047;-80
2022/02/11 15:26:13;;;;;;;20.77;2.53;;;6.80;99.90;;;;;;5098797;28;20043;-81
2022/02/11 15:28:45;;;;;;;12.52;1.92;;;6.70;99.90;;;;;;5120598;27;20090;-80
2022/02/11 15:31:12;;;;;;;10.00;1.27;;;6.50;99.90;;;;;;5122468;27;20123;-79
2022/02/11 15:33:41;;;;;;;7.13;1.38;;;6.30;99.90;;;;;;5096111;27;20081;-80
2022/02/11 15:36:09;;;;;;;14.05;1.75;;;6.20;99.90;;;;;;5123086;27;20169;-79
2022/02/11 15:38:34;;;;;;;14.35;2.08;;;5.90;99.90;;;;;;5113606;27;20448;-80
2022/02/11 15:41:00;;;;;;;14.43;1.65;;;5.70;99.90;;;;;;5112892;27;20056;-79
2022/02/11 15:43:26;;;;;;;14.07;1.75;;;5.60;99.90;;;;;;5115208;27;20044;-79
2022/02/11 15:45:58;;;;;;;13.27;1.63;;;5.50;99.90;;;;;;5120173;27;20501;-80
2022/02/11 15:48:24;;;;;;;8.70;1.70;;;5.60;99.90;;;;;;5119820;27;20039;-81
2022/02/11 15:50:50;;;;;;;15.40;2.13;;;5.40;99.90;;;;;;5106225;27;20062;-78
2022/02/11 15:53:16;;;;;;;14.23;2.10;;;5.40;99.90;;;;;;5123674;27;20043;-81
2022/02/11 15:55:42;;;;;;;11.88;1.80;;;5.40;99.90;;;;;;5120644;27;20047;-81
2022/02/11 15:58:08;;;;;;;17.90;2.15;;;5.50;99.90;;;;;;5123013;27;20058;-81
2022/02/11 16:00:38;;;;;;;12.30;1.70;;;5.50;99.90;;;;;;5101445;27;20058;-80
2022/02/11 16:03:04;;;;;;;10.40;1.80;;;5.50;99.90;;;;;;5120129;27;20055;-81
2022/02/11 16:05:30;;;;;;;11.35;1.73;;;5.50;99.90;;;;;;5114561;27;20058;-77
2022/02/11 16:07:56;;;;;;;9.43;1.60;;;5.40;99.90;;;;;;5115777;27;20040;-84
2022/02/11 16:10:25;;;;;;;12.93;1.77;;;5.30;99.90;;;;;;5118044;27;20437;-83
2022/02/11 16:12:52;;;;;;;9.52;1.80;;;5.20;99.90;;;;;;5104916;27;20057;-82
2022/02/11 16:15:18;;;;;;;12.13;1.80;;;5.40;99.90;;;;;;5102900;27;20047;-79
2022/02/11 16:20:37;;;;;;;15.07;1.80;;;4.90;99.90;;;;;;5119671;27;20058;-78
2022/02/11 16:23:06;;;;;;;12.35;1.67;;;5.00;99.90;;;;;;5101409;27;20092;-78
2022/02/11 16:25:33;;;;;;;18.77;1.65;;;4.90;99.90;;;;;;5118541;27;20157;-79
2022/02/11 16:27:59;;;;;;;9.25;1.58;;;4.80;99.90;;;;;;5120769;27;20054;-78
2022/02/11 16:30:25;;;;;;;10.98;1.60;;;4.80;99.90;;;;;;5123883;27;20039;-80
2022/02/11 16:32:51;;;;;;;13.88;2.22;;;4.70;99.90;;;;;;5104739;27;20878;-79
2022/02/11 16:35:18;;;;;;;12.15;1.67;;;4.60;99.90;;;;;;5121459;27;20040;-79
2022/02/11 16:37:45;;;;;;;18.77;2.10;;;4.60;99.90;;;;;;5104858;27;20134;-78
2022/02/11 16:40:12;;;;;;;12.77;1.98;;;4.50;99.90;;;;;;5122737;27;20043;-80
2022/02/11 16:42:53;;;;;;;12.52;2.15;;;4.40;99.90;;;;;;5117745;27;20039;-84
2022/02/11 16:45:20;;;;;;;18.98;2.10;;;4.90;99.90;;;;;;5055401;27;20043;-80
2022/02/11 16:47:49;;;;;;;15.75;2.00;;;4.20;99.90;;;;;;5119296;27;20086;-83
2022/02/11 16:50:14;;;;;;;14.05;2.03;;;4.20;99.90;;;;;;5120080;27;20117;-82
2022/02/11 16:52:40;;;;;;;11.63;1.85;;;4.10;99.90;;;;;;5114923;27;20466;-83
2022/02/11 16:55:11;;;;;;;12.00;1.90;;;4.10;99.90;;;;;;5099242;27;20035;-84
2022/02/11 16:57:37;;;;;;;13.52;2.15;;;4.10;99.90;;;;;;5097050;27;20150;-86
2022/02/11 17:00:08;;;;;;;15.13;2.83;;;4.00;99.90;;;;;;5104545;27;20462;-82
2022/02/11 17:02:34;;;;;;;17.77;3.50;;;3.90;99.90;;;;;;5112600;27;20039;-84
2022/02/11 17:05:00;;;;;;;16.65;3.83;;;3.80;99.90;;;;;;5115500;27;20339;-84
2022/02/11 17:07:26;;;;;;;20.00;3.83;;;3.80;99.90;;;;;;5100425;27;20043;-81
2022/02/11 17:09:51;;;;;;;18.00;3.58;;;4.00;99.90;;;;;;5100643;28;20046;-79
2022/02/11 17:12:18;;;;;;;15.15;2.75;;;3.80;99.90;;;;;;5117988;27;20036;-80
2022/02/11 17:14:48;;;;;;;12.85;3.30;;;4.40;99.90;;;;;;5118289;28;20047;-87
2022/02/11 17:17:17;;;;;;;18.88;3.15;;;3.80;99.90;;;;;;5118410;27;20108;-80
2022/02/11 17:19:46;;;;;;;22.83;3.50;;;4.30;99.90;;;;;;5107763;28;20036;-83
2022/02/11 17:22:12;;;;;;;23.58;11.70;;;3.80;99.90;;;;;;5121639;27;20036;-82
2022/02/11 17:24:37;;;;;;;19.67;7.40;;;4.40;99.90;;;;;;5097367;28;20047;-82
2022/02/11 17:27:06;;;;;;;18.67;2.75;;;3.80;99.90;;;;;;5114199;27;20023;-82
2022/02/11 17:29:45;;;;;;;21.58;4.38;;;4.00;99.90;;;;;;5096091;28;20042;-83
2022/02/11 17:32:12;;;;;;;14.93;4.22;;;3.90;99.90;;;;;;5104053;28;20047;-83
2022/02/11 17:35:03;;;;;;;19.63;3.10;;;4.60;99.90;;;;;;5100956;27;20058;-81
2022/02/11 17:38:15;;;;;;;18.70;3.97;;;3.80;99.90;;;;;;5120725;27;20039;-81